createdAt,value
2019-05-19T00:01:17.412Z,58.24
2019-05-19T00:03:48.098Z,58.24
2019-05-19T00:06:18.626Z,58.35
2019-05-19T00:08:49.088Z,57.66
2019-05-19T00:11:19.632Z,57.86
2019-05-19T00:13:50.341Z,58.08
2019-05-19T00:16:20.869Z,58.40
2019-05-19T00:18:51.395Z,57.92
2019-05-19T00:21:21.753Z,57.68
2019-05-19T00:23:52.226Z,57.96
2019-05-19T00:26:22.653Z,57.62
2019-05-19T00:28:53.125Z,57.27
2019-05-19T00:31:23.544Z,57.94
2019-05-19T00:33:54.133Z,58.59
2019-05-19T00:36:24.643Z,58.82
2019-05-19T00:38:55.108Z,58.21
2019-05-19T00:41:25.517Z,59.18
2019-05-19T00:43:55.966Z,59.41
2019-05-19T00:46:26.350Z,58.93
2019-05-19T00:49:14.755Z,58.69
2019-05-19T00:51:46.131Z,59.22
2019-05-19T00:54:16.756Z,58.79
2019-05-19T00:56:48.071Z,59.26
2019-05-19T00:59:19.641Z,58.70
2019-05-19T01:01:50.031Z,58.67
2019-05-19T01:04:20.698Z,58.86
2019-05-19T01:06:51.164Z,58.68
2019-05-19T01:09:21.666Z,58.52
2019-05-19T01:11:52.221Z,58.09
2019-05-19T01:14:22.769Z,58.89
2019-05-19T01:16:53.282Z,58.89
2019-05-19T01:19:23.771Z,59.43
2019-05-19T01:21:54.283Z,58.85
2019-05-19T01:24:24.840Z,58.00
2019-05-19T01:26:55.341Z,58.48
2019-05-19T01:29:25.840Z,58.86
2019-05-19T01:31:56.356Z,58.23
2019-05-19T01:34:26.931Z,58.29
2019-05-19T01:36:57.685Z,58.16
2019-05-19T01:39:28.207Z,58.40
2019-05-19T01:41:58.973Z,58.03
2019-05-19T01:44:29.536Z,57.99
2019-05-19T01:47:00.245Z,58.76
2019-05-19T01:49:30.921Z,57.49
2019-05-19T01:52:02.330Z,57.77
2019-05-19T01:54:32.921Z,58.00
2019-05-19T01:57:03.364Z,57.70
2019-05-19T01:59:33.936Z,58.29
2019-05-19T02:02:04.358Z,57.55
2019-05-19T02:04:34.906Z,57.70
2019-05-19T02:07:05.441Z,57.86
2019-05-19T02:09:35.926Z,57.79
2019-05-19T02:12:06.346Z,57.74
2019-05-19T02:14:37.068Z,57.65
2019-05-19T02:17:07.515Z,57.32
2019-05-19T02:19:38.112Z,57.67
2019-05-19T02:22:08.507Z,57.17
2019-05-19T02:24:39.517Z,58.13
2019-05-19T02:27:09.952Z,57.36
2019-05-19T02:29:40.551Z,58.10
2019-05-19T02:32:11.169Z,57.14
2019-05-19T02:34:41.651Z,57.00
2019-05-19T02:37:12.278Z,57.81
2019-05-19T02:39:42.747Z,57.14
2019-05-19T02:42:16.438Z,58.90
2019-05-19T02:44:49.200Z,56.58
2019-05-19T02:47:21.098Z,57.24
2019-05-19T02:49:54.871Z,56.98
2019-05-19T02:52:28.880Z,57.00
2019-05-19T02:55:01.386Z,56.91
2019-05-19T02:57:33.248Z,56.90
2019-05-19T03:00:07.002Z,57.90
2019-05-19T03:02:37.369Z,57.45
2019-05-19T03:05:08.665Z,57.09
2019-05-19T03:07:39.002Z,56.56
2019-05-19T03:10:09.844Z,57.11
2019-05-19T03:12:40.391Z,56.24
2019-05-19T03:15:11.086Z,55.95
2019-05-19T03:17:41.587Z,56.54
2019-05-19T03:20:12.329Z,56.60
2019-05-19T03:22:42.829Z,56.00
2019-05-19T03:25:13.897Z,55.84
2019-05-19T03:27:44.368Z,56.20
2019-05-19T03:30:32.867Z,55.51
2019-05-19T03:33:04.910Z,55.53
2019-05-19T03:35:35.350Z,54.93
2019-05-19T03:38:06.191Z,55.92
2019-05-19T03:40:36.759Z,55.63
2019-05-19T03:43:07.295Z,55.62
2019-05-19T03:45:37.867Z,55.75
2019-05-19T03:48:08.478Z,55.64
2019-05-19T03:50:39.136Z,55.64
2019-05-19T03:53:10.558Z,56.07
2019-05-19T03:55:41.010Z,54.58
2019-05-19T03:58:11.524Z,53.77
2019-05-19T04:00:42.027Z,54.79
2019-05-19T04:03:12.562Z,54.84
2019-05-19T04:05:43.132Z,54.81
2019-05-19T04:08:13.571Z,54.50
2019-05-19T04:10:44.174Z,54.10
2019-05-19T04:13:14.582Z,54.11
2019-05-19T04:15:45.047Z,54.88
2019-05-19T04:18:15.597Z,54.14
2019-05-19T04:20:46.184Z,53.38
2019-05-19T04:23:16.610Z,54.27
2019-05-19T04:25:47.103Z,53.99
2019-05-19T04:28:17.546Z,54.14
2019-05-19T04:30:48.092Z,54.01
2019-05-19T04:33:18.637Z,54.27
2019-05-19T04:35:49.145Z,54.75
2019-05-19T04:38:19.768Z,52.91
2019-05-19T04:40:50.255Z,52.78
2019-05-19T04:43:20.678Z,54.31
2019-05-19T04:45:51.354Z,52.34
2019-05-19T04:48:21.878Z,52.37
2019-05-19T04:50:52.468Z,52.45
2019-05-19T04:53:23.738Z,51.37
2019-05-19T04:55:54.194Z,51.14
2019-05-19T04:58:24.631Z,50.76
2019-05-19T05:00:55.120Z,50.47
2019-05-19T05:03:25.633Z,50.12
2019-05-19T05:05:56.086Z,49.39
2019-05-19T05:08:30.163Z,49.80
2019-05-19T05:10:58.742Z,48.94
2019-05-19T05:13:29.347Z,48.91
2019-05-19T05:15:59.818Z,48.51
2019-05-19T05:18:30.252Z,47.80
2019-05-19T05:21:00.827Z,48.23
2019-05-19T05:23:31.348Z,47.11
2019-05-19T05:26:01.907Z,47.46
2019-05-19T05:28:32.424Z,46.66
2019-05-19T05:31:02.886Z,46.79
2019-05-19T05:33:33.286Z,45.87
2019-05-19T05:36:04.051Z,46.51
2019-05-19T05:38:34.473Z,44.71
2019-05-19T05:41:04.956Z,45.19
2019-05-19T05:43:35.469Z,44.46
2019-05-19T05:46:06.071Z,44.46
2019-05-19T05:48:36.484Z,44.80
2019-05-19T05:51:07.130Z,44.22
2019-05-19T05:53:38.473Z,44.20
2019-05-19T05:56:08.927Z,44.64
2019-05-19T05:58:39.338Z,44.89
2019-05-19T06:01:09.800Z,44.68
2019-05-19T06:03:40.362Z,43.27
2019-05-19T06:06:11.031Z,43.12
2019-05-19T06:08:41.456Z,43.86
2019-05-19T06:11:12.239Z,42.51
2019-05-19T06:13:42.756Z,42.42
2019-05-19T06:16:13.338Z,41.71
2019-05-19T06:18:43.966Z,41.34
2019-05-19T06:21:14.496Z,41.23
2019-05-19T06:23:44.931Z,40.75
2019-05-19T06:26:15.456Z,39.07
2019-05-19T06:28:46.065Z,38.57
2019-05-19T06:31:16.660Z,37.88
2019-05-19T06:33:47.066Z,36.53
2019-05-19T06:36:17.640Z,37.44
2019-05-19T06:38:48.044Z,37.26
2019-05-19T06:41:18.477Z,36.38
2019-05-19T06:43:48.890Z,36.20
2019-05-19T06:46:19.349Z,34.70
2019-05-19T06:48:49.772Z,33.80
2019-05-19T06:51:20.439Z,34.89
2019-05-19T06:53:51.820Z,34.64
2019-05-19T06:56:22.299Z,34.87
2019-05-19T06:58:52.780Z,34.84
2019-05-19T07:01:23.228Z,33.95
2019-05-19T07:03:53.851Z,33.00
2019-05-19T07:06:24.432Z,33.89
2019-05-19T07:08:54.860Z,33.54
2019-05-19T07:11:25.535Z,33.60
2019-05-19T07:13:55.952Z,33.40
2019-05-19T07:16:26.394Z,33.06
2019-05-19T07:18:56.905Z,32.94
2019-05-19T07:21:27.342Z,33.37
2019-05-19T07:23:57.735Z,33.24
2019-05-19T07:26:28.191Z,33.06
2019-05-19T07:28:59.066Z,32.76
2019-05-19T07:31:29.696Z,32.84
2019-05-19T07:34:00.091Z,32.21
2019-05-19T07:36:30.600Z,32.19
2019-05-19T07:39:01.020Z,32.49
2019-05-19T07:41:31.573Z,31.94
2019-05-19T07:44:01.994Z,32.37
2019-05-19T07:46:32.478Z,32.45
2019-05-19T07:49:03.022Z,32.51
2019-05-19T07:51:33.571Z,33.08
2019-05-19T07:54:04.821Z,32.05
2019-05-19T07:56:35.284Z,31.75
2019-05-19T07:59:07.929Z,32.66
2019-05-19T08:01:37.905Z,31.70
2019-05-19T08:04:08.308Z,32.32
2019-05-19T08:06:38.775Z,32.35
2019-05-19T08:09:09.497Z,32.40
2019-05-19T08:11:40.015Z,31.78
2019-05-19T08:14:10.420Z,31.95
2019-05-19T08:16:40.903Z,31.91
2019-05-19T08:19:11.286Z,31.50
2019-05-19T08:21:41.754Z,31.51
2019-05-19T08:24:12.165Z,31.05
2019-05-19T08:26:42.683Z,31.00
2019-05-19T08:29:13.137Z,31.74
2019-05-19T08:31:43.616Z,31.47
2019-05-19T08:34:14.044Z,31.21
2019-05-19T08:36:44.521Z,32.02
2019-05-19T08:39:14.970Z,31.01
2019-05-19T08:41:45.431Z,31.28
2019-05-19T08:44:15.857Z,31.31
2019-05-19T08:46:46.333Z,31.04
2019-05-19T08:49:16.752Z,31.45
2019-05-19T08:51:47.298Z,31.39
2019-05-19T08:54:19.317Z,31.32
2019-05-19T08:56:49.781Z,30.92
2019-05-19T08:59:20.298Z,30.09
2019-05-19T09:01:50.760Z,30.18
2019-05-19T09:04:21.173Z,29.79
2019-05-19T09:06:51.656Z,29.78
2019-05-19T09:09:22.098Z,29.27
2019-05-19T09:11:52.577Z,28.48
2019-05-19T09:14:22.991Z,29.13
2019-05-19T09:16:53.476Z,29.62
2019-05-19T09:19:23.859Z,29.31
2019-05-19T09:21:54.240Z,29.21
2019-05-19T09:24:30.387Z,28.99
2019-05-19T09:26:56.737Z,29.24
2019-05-19T09:29:27.207Z,28.77
2019-05-19T09:31:57.818Z,27.76
2019-05-19T09:34:28.346Z,28.90
2019-05-19T09:36:58.888Z,28.36
2019-05-19T09:39:29.400Z,27.58
2019-05-19T09:41:59.934Z,28.08
2019-05-19T09:44:30.384Z,27.68
2019-05-19T09:47:00.944Z,27.50
2019-05-19T09:49:34.983Z,27.92
2019-05-19T09:52:06.549Z,27.91
2019-05-19T09:54:45.287Z,27.49
2019-05-19T09:57:10.037Z,28.33
2019-05-19T09:59:40.473Z,28.69
2019-05-19T10:02:10.951Z,26.76
2019-05-19T10:04:41.604Z,27.19
2019-05-19T10:07:12.541Z,26.32
2019-05-19T10:10:02.151Z,27.00
2019-05-19T10:12:32.678Z,27.08
2019-05-19T10:15:03.725Z,27.18
2019-05-19T10:17:34.409Z,27.08
2019-05-19T10:20:06.765Z,27.71
2019-05-19T10:22:37.239Z,27.17
2019-05-19T10:25:21.612Z,27.53
2019-05-19T10:27:41.960Z,27.13
2019-05-19T10:30:13.784Z,26.89
2019-05-19T10:32:44.240Z,26.15
2019-05-19T10:35:14.751Z,26.65
2019-05-19T10:37:45.206Z,26.84
2019-05-19T10:40:15.805Z,26.13
2019-05-19T10:42:46.339Z,26.08
2019-05-19T10:45:17.151Z,26.01
2019-05-19T10:47:47.655Z,26.06
2019-05-19T10:50:18.055Z,25.91
2019-05-19T10:52:48.656Z,24.75
2019-05-19T10:55:19.273Z,26.08
2019-05-19T10:57:49.714Z,25.17
2019-05-19T11:00:20.260Z,24.87
2019-05-19T11:02:50.718Z,25.12
2019-05-19T11:05:24.104Z,25.08
2019-05-19T11:07:54.541Z,24.89
2019-05-19T11:10:24.972Z,25.02
2019-05-19T11:12:55.417Z,24.84
2019-05-19T11:15:25.839Z,23.92
2019-05-19T11:17:56.308Z,23.59
2019-05-19T11:20:26.737Z,23.89
2019-05-19T11:22:57.140Z,23.63
2019-05-19T11:25:34.153Z,23.04
2019-05-19T11:27:59.716Z,23.42
2019-05-19T11:30:30.180Z,23.37
2019-05-19T11:33:00.682Z,25.36
2019-05-19T11:35:31.213Z,23.46
2019-05-19T11:38:01.736Z,24.07
2019-05-19T11:40:32.244Z,23.69
2019-05-19T11:43:02.898Z,23.38
2019-05-19T11:45:33.528Z,23.39
2019-05-19T11:48:04.125Z,23.21
2019-05-19T11:50:34.601Z,23.03
2019-05-19T11:53:05.133Z,22.94
2019-05-19T11:55:36.384Z,23.88
2019-05-19T11:58:06.836Z,24.53
2019-05-19T12:00:37.449Z,23.59
2019-05-19T12:03:08.118Z,23.30
2019-05-19T12:05:38.608Z,23.29
2019-05-19T12:08:09.224Z,23.25
2019-05-19T12:10:39.675Z,22.92
2019-05-19T12:13:10.137Z,23.00
2019-05-19T12:15:40.562Z,22.69
2019-05-19T12:18:11.145Z,22.48
2019-05-19T12:20:41.569Z,22.90
2019-05-19T12:23:12.089Z,22.73
2019-05-19T12:25:42.532Z,21.97
2019-05-19T12:28:12.991Z,21.53
2019-05-19T12:30:43.421Z,22.52
2019-05-19T12:33:13.898Z,21.10
2019-05-19T12:35:44.379Z,21.15
2019-05-19T12:38:14.885Z,21.35
2019-05-19T12:40:45.318Z,21.67
2019-05-19T12:43:15.776Z,21.68
2019-05-19T12:45:46.174Z,22.61
2019-05-19T12:48:16.679Z,21.42
2019-05-19T12:50:47.094Z,21.81
2019-05-19T12:53:17.646Z,22.92
2019-05-19T12:55:48.967Z,21.97
2019-05-19T12:58:19.514Z,22.12
2019-05-19T13:00:49.939Z,22.99
2019-05-19T13:03:20.377Z,22.33
2019-05-19T13:05:50.742Z,22.54
2019-05-19T13:08:21.236Z,23.07
2019-05-19T13:10:51.718Z,23.55
2019-05-19T13:13:22.213Z,23.35
2019-05-19T13:15:52.686Z,24.52
2019-05-19T13:18:23.171Z,23.64
2019-05-19T13:20:53.566Z,23.64
2019-05-19T13:23:24.035Z,23.46
2019-05-19T13:25:54.416Z,24.11
2019-05-19T13:28:24.968Z,24.58
2019-05-19T13:30:55.385Z,24.63
2019-05-19T13:33:25.951Z,24.27
2019-05-19T13:35:56.471Z,24.82
2019-05-19T13:38:26.913Z,24.59
2019-05-19T13:40:57.345Z,24.89
2019-05-19T13:43:28.260Z,24.78
2019-05-19T13:45:58.867Z,24.00
2019-05-19T13:48:29.308Z,24.08
2019-05-19T13:50:59.720Z,23.90
2019-05-19T13:53:30.246Z,24.19
2019-05-19T13:56:01.472Z,24.71
2019-05-19T13:58:31.929Z,24.61
2019-05-19T14:01:02.490Z,25.21
2019-05-19T14:03:32.977Z,25.56
2019-05-19T14:06:03.407Z,26.24
2019-05-19T14:08:33.898Z,26.44
2019-05-19T14:11:04.378Z,25.93
2019-05-19T14:13:34.951Z,26.37
2019-05-19T14:16:05.411Z,26.81
2019-05-19T14:18:35.955Z,26.52
2019-05-19T14:21:06.442Z,26.27
2019-05-19T14:23:36.965Z,27.32
2019-05-19T14:26:07.391Z,27.32
2019-05-19T14:28:37.869Z,27.06
2019-05-19T14:31:08.300Z,26.98
2019-05-19T14:33:38.788Z,27.40
2019-05-19T14:36:09.224Z,27.34
2019-05-19T14:38:41.396Z,27.38
2019-05-19T14:41:11.838Z,28.30
2019-05-19T14:43:42.313Z,28.00
2019-05-19T14:46:12.768Z,28.41
2019-05-19T14:48:43.241Z,28.90
2019-05-19T14:51:13.649Z,28.33
2019-05-19T14:53:44.190Z,28.04
2019-05-19T14:56:15.448Z,28.14
2019-05-19T14:58:45.916Z,27.98
2019-05-19T15:01:16.359Z,27.74
2019-05-19T15:03:46.810Z,27.97
2019-05-19T15:06:17.230Z,28.31
2019-05-19T15:08:47.783Z,28.90
2019-05-19T15:11:18.219Z,28.66
2019-05-19T15:13:48.867Z,29.08
2019-05-19T15:16:19.306Z,29.23
2019-05-19T15:18:49.765Z,29.22
2019-05-19T15:21:20.990Z,28.75
2019-05-19T15:23:51.460Z,28.85
2019-05-19T15:26:21.890Z,29.35
2019-05-19T15:28:52.336Z,29.45
2019-05-19T15:31:22.749Z,29.42
2019-05-19T15:33:53.550Z,28.87
2019-05-19T15:36:24.265Z,29.23
2019-05-19T15:38:54.727Z,29.40
2019-05-19T15:41:25.301Z,29.38
2019-05-19T15:43:55.835Z,29.57
2019-05-19T15:46:26.271Z,29.28
2019-05-19T15:48:56.839Z,29.45
2019-05-19T15:51:29.155Z,29.65
2019-05-19T15:53:59.608Z,29.84
2019-05-19T15:56:30.897Z,29.85
2019-05-19T15:59:01.372Z,30.20
2019-05-19T16:01:31.870Z,30.10
2019-05-19T16:04:02.360Z,30.23
2019-05-19T16:06:32.882Z,30.20
2019-05-19T16:09:04.536Z,29.97
2019-05-19T16:11:34.959Z,30.08
2019-05-19T16:14:05.543Z,30.28
2019-05-19T16:16:35.974Z,30.26
2019-05-19T16:19:06.464Z,30.34
2019-05-19T16:21:36.860Z,29.50
2019-05-19T16:24:07.450Z,30.07
2019-05-19T16:26:37.864Z,29.80
2019-05-19T16:29:08.322Z,30.20
2019-05-19T16:31:38.741Z,30.00
2019-05-19T16:34:09.191Z,29.73
2019-05-19T16:36:39.608Z,29.61
2019-05-19T16:39:10.085Z,29.64
2019-05-19T16:41:40.547Z,29.83
2019-05-19T16:44:11.046Z,30.04
2019-05-19T16:46:41.520Z,29.91
2019-05-19T16:49:12.096Z,29.84
2019-05-19T16:51:42.491Z,30.39
2019-05-19T16:54:14.697Z,29.95
2019-05-19T16:56:46.076Z,30.32
2019-05-19T16:59:16.561Z,30.30
2019-05-19T17:01:46.975Z,30.42
2019-05-19T17:04:17.459Z,30.84
2019-05-19T17:06:47.896Z,31.24
2019-05-19T17:09:18.373Z,31.32
2019-05-19T17:11:48.908Z,31.59
2019-05-19T17:14:19.370Z,31.77
2019-05-19T17:16:49.798Z,31.82
2019-05-19T17:19:20.261Z,32.38
2019-05-19T17:21:50.760Z,32.24
2019-05-19T17:24:21.217Z,32.59
2019-05-19T17:26:51.627Z,32.72
2019-05-19T17:29:22.073Z,32.98
2019-05-19T17:32:05.282Z,33.09
2019-05-19T17:34:24.581Z,33.16
2019-05-19T17:36:54.968Z,33.19
2019-05-19T17:39:25.480Z,33.56
2019-05-19T17:41:55.993Z,33.61
2019-05-19T17:44:26.594Z,33.63
2019-05-19T17:46:57.026Z,33.39
2019-05-19T17:49:27.500Z,33.58
2019-05-19T17:51:57.910Z,34.05
2019-05-19T17:54:28.451Z,33.82
2019-05-19T17:57:01.473Z,33.98
2019-05-19T17:59:32.470Z,33.56
2019-05-19T18:02:03.293Z,36.07
2019-05-19T18:04:33.868Z,34.10
2019-05-19T18:07:04.338Z,33.92
2019-05-19T18:09:34.788Z,34.10
2019-05-19T18:12:05.254Z,34.43
2019-05-19T18:14:35.796Z,34.63
2019-05-19T18:17:06.243Z,34.70
2019-05-19T18:19:36.847Z,34.66
2019-05-19T18:22:07.310Z,34.84
2019-05-19T18:24:37.815Z,35.06
2019-05-19T18:27:08.320Z,35.26
2019-05-19T18:29:38.954Z,35.45
2019-05-19T18:32:09.457Z,35.48
2019-05-19T18:34:39.994Z,35.59
2019-05-19T18:37:13.407Z,35.70
2019-05-19T18:39:42.672Z,36.31
2019-05-19T18:42:13.109Z,36.31
2019-05-19T18:44:43.591Z,35.90
2019-05-19T18:47:14.025Z,36.12
2019-05-19T18:49:44.505Z,36.04
2019-05-19T18:52:14.990Z,36.66
2019-05-19T18:54:45.618Z,36.23
2019-05-19T18:57:17.024Z,36.26
2019-05-19T18:59:47.993Z,37.09
2019-05-19T19:02:18.733Z,36.80
2019-05-19T19:04:49.305Z,37.12
2019-05-19T19:07:21.330Z,37.33
2019-05-19T19:09:51.812Z,37.42
2019-05-19T19:12:22.304Z,38.07
2019-05-19T19:14:52.815Z,39.26
2019-05-19T19:17:23.269Z,39.54
2019-05-19T19:19:53.968Z,39.25
2019-05-19T19:22:24.471Z,39.43
2019-05-19T19:24:55.048Z,39.45
2019-05-19T19:27:25.487Z,39.90
2019-05-19T19:30:03.386Z,40.29
2019-05-19T19:32:28.144Z,42.60
2019-05-19T19:34:58.648Z,41.57
2019-05-19T19:37:29.076Z,42.33
2019-05-19T19:39:59.512Z,41.94
2019-05-19T19:42:29.975Z,41.71
2019-05-19T19:45:00.431Z,43.30
2019-05-19T19:47:30.954Z,42.30
2019-05-19T19:50:01.588Z,42.41
2019-05-19T19:52:32.069Z,42.85
2019-05-19T19:55:02.632Z,43.02
2019-05-19T19:57:33.907Z,43.17
2019-05-19T20:00:17.295Z,43.91
2019-05-19T20:02:38.201Z,43.34
2019-05-19T20:05:08.779Z,43.55
2019-05-19T20:07:39.235Z,44.14
2019-05-19T20:10:09.738Z,44.37
2019-05-19T20:12:40.324Z,44.30
2019-05-19T20:15:15.785Z,45.47
2019-05-19T20:17:46.248Z,44.68
2019-05-19T20:20:16.741Z,44.64
2019-05-19T20:22:47.428Z,45.63
2019-05-19T20:25:17.935Z,44.93
2019-05-19T20:27:48.431Z,46.09
2019-05-19T20:30:33.665Z,45.84
2019-05-19T20:32:51.412Z,45.81
2019-05-19T20:35:22.024Z,46.38
2019-05-19T20:37:52.495Z,45.84
2019-05-19T20:40:23.038Z,46.40
2019-05-19T20:42:56.691Z,46.46
2019-05-19T20:45:25.727Z,45.82
2019-05-19T20:47:56.195Z,45.81
2019-05-19T20:50:26.831Z,45.84
2019-05-19T20:52:57.311Z,45.81
2019-05-19T20:55:27.897Z,45.96
2019-05-19T20:57:58.474Z,46.20
2019-05-19T21:00:29.101Z,46.55
2019-05-19T21:02:59.551Z,45.31
2019-05-19T21:05:30.054Z,44.69
2019-05-19T21:08:00.501Z,45.60
2019-05-19T21:10:31.025Z,44.92
2019-05-19T21:13:01.501Z,45.16
2019-05-19T21:15:32.007Z,45.19
2019-05-19T21:18:02.540Z,45.08
2019-05-19T21:20:33.027Z,46.46
2019-05-19T21:23:03.603Z,44.73
2019-05-19T21:25:34.439Z,44.64
2019-05-19T21:28:04.880Z,45.52
2019-05-19T21:30:35.423Z,45.59
2019-05-19T21:33:05.981Z,44.84
2019-05-19T21:35:36.506Z,44.89
2019-05-19T21:38:06.932Z,47.98
2019-05-19T21:40:37.421Z,48.58
2019-05-19T21:43:07.873Z,46.37
2019-05-19T21:45:38.365Z,46.08
2019-05-19T21:48:08.806Z,46.25
2019-05-19T21:50:39.293Z,46.59
2019-05-19T21:53:09.780Z,45.43
2019-05-19T21:55:40.381Z,46.46
2019-05-19T21:58:11.699Z,44.82
2019-05-19T22:00:42.179Z,45.65
2019-05-19T22:03:12.626Z,45.22
2019-05-19T22:05:52.817Z,45.42
2019-05-19T22:08:17.145Z,45.43
2019-05-19T22:10:47.623Z,45.74
2019-05-19T22:13:18.042Z,46.71
2019-05-19T22:15:48.547Z,47.22
2019-05-19T22:18:19.074Z,46.21
2019-05-19T22:20:49.577Z,47.31
2019-05-19T22:23:20.024Z,47.36
2019-05-19T22:25:50.553Z,47.89
2019-05-19T22:28:21.148Z,47.79
2019-05-19T22:30:51.735Z,47.76
2019-05-19T22:33:22.175Z,47.27
2019-05-19T22:35:52.735Z,47.98
2019-05-19T22:38:23.203Z,49.08
2019-05-19T22:40:53.729Z,49.24
2019-05-19T22:43:24.163Z,51.23
2019-05-19T22:45:54.621Z,50.29
2019-05-19T22:48:25.066Z,51.45
2019-05-19T22:50:55.556Z,50.68
2019-05-19T22:53:25.975Z,51.60
2019-05-19T22:55:56.604Z,50.54
2019-05-19T22:58:27.276Z,52.00
2019-05-19T23:00:58.174Z,51.21
2019-05-19T23:03:28.575Z,52.36
2019-05-19T23:05:59.176Z,50.97
2019-05-19T23:08:29.535Z,49.21
2019-05-19T23:11:00.043Z,50.90
2019-05-19T23:13:30.410Z,51.76
2019-05-19T23:16:00.911Z,48.37
2019-05-19T23:18:31.454Z,49.15
2019-05-19T23:21:01.838Z,48.27
2019-05-19T23:23:32.285Z,48.35
2019-05-19T23:26:02.811Z,48.32
2019-05-19T23:28:33.231Z,48.08
2019-05-19T23:31:03.810Z,47.41
2019-05-19T23:33:34.238Z,47.40
2019-05-19T23:36:04.721Z,47.49
2019-05-19T23:38:35.286Z,47.49
2019-05-19T23:41:05.864Z,47.75
2019-05-19T23:43:36.313Z,48.24
2019-05-19T23:46:06.774Z,48.04
2019-05-19T23:48:37.205Z,48.64
2019-05-19T23:51:07.798Z,48.79
2019-05-19T23:53:38.225Z,48.74
2019-05-19T23:56:08.779Z,48.23
2019-05-19T23:58:39.281Z,48.64
